Terminal Aerodrome Forecast
Issued by NWS

Home | Current Version | Previous Version | Text Only | Print | Product List | Glossary On
Versions: 1 2 3 4 5 6 7 8 9 10 11 12 13 14 15 16 17 18 19 20
000
FTUS43 KDLH 171100
TAFHIB
TAF
KHIB 171124Z 1712/1812 34010KT P6SM SCT018 OVC060
      TEMPO 1712/1714 6SM -SN BKN017
     FM171400 35006KT P6SM BKN023 OVC100
     FM180200 VRB03KT P6SM SCT018
     FM180800 00000KT 4SM BR SCT008=

USA.gov is the U.S. government's official web portal to all federal, state and local government web resources and services.